<?xml version="1.0" encoding="UTF-8" standalone="no" ?>
<gpx xmlns="http://www.topografix.com/GPX/1/1" xmlns:xsi="http://www.w3.org/2001/XMLSchema-instance" xsi:schemaLocation="http://www.topografix.com/GPX/1/1 http://www.topografix.com/GPX/1/1/gpx.xsd" version="1.1" creator="VisuGPX - https://www.visugpx.com">
  <metadata>
    <name>assemblage des fichiers GPX velofrancette ouistreham saumur</name>
    <desc><![CDATA[assemblage des fichiers GPX velofrancette ouistreham saumur]]></desc>
  </metadata>
  <trk>
    <name><![CDATA[20180702212037-57JBc]]></name>
    <trkseg>
      <trkpt lat="47.34369" lon="-0.23194">
        <ele>28.7</ele>
        <time>2014-04-20T13:36:19Z</time>
      </trkpt>
      <trkpt lat="47.34372" lon="-0.23191">
        <ele>28.5</ele>
        <time>2014-04-20T13:36:24Z</time>
      </trkpt>
      <trkpt lat="47.34372" lon="-0.23191">
        <ele>28.4</ele>
        <time>2014-04-20T13:36:50Z</time>
      </trkpt>
      <trkpt lat="47.34372" lon="-0.23191">
        <ele>28.4</ele>
        <time>2014-04-20T13:41:26Z</time>
      </trkpt>
      <trkpt lat="47.34372" lon="-0.23191">
        <ele>28.4</ele>
        <time>2014-04-20T13:41:27Z</time>
      </trkpt>
      <trkpt lat="47.34381" lon="-0.23182">
        <ele>28</ele>
        <time>2014-04-20T13:41:32Z</time>
      </trkpt>
      <trkpt lat="47.34401" lon="-0.23163">
        <ele>27.7</ele>
        <time>2014-04-20T13:41:39Z</time>
      </trkpt>
      <trkpt lat="47.34432" lon="-0.23135">
        <ele>27.6</ele>
        <time>2014-04-20T13:41:47Z</time>
      </trkpt>
      <trkpt lat="47.34436" lon="-0.23131">
        <ele>27.4</ele>
        <time>2014-04-20T13:41:48Z</time>
      </trkpt>
      <trkpt lat="47.3447" lon="-0.23102">
        <ele>26.3</ele>
        <time>2014-04-20T13:41:56Z</time>
      </trkpt>
      <trkpt lat="47.34502" lon="-0.23075">
        <ele>23</ele>
        <time>2014-04-20T13:42:04Z</time>
      </trkpt>
      <trkpt lat="47.34528" lon="-0.23051">
        <ele>23</ele>
        <time>2014-04-20T13:42:11Z</time>
      </trkpt>
      <trkpt lat="47.34566" lon="-0.23019">
        <ele>23</ele>
        <time>2014-04-20T13:42:20Z</time>
      </trkpt>
      <trkpt lat="47.34604" lon="-0.22985">
        <ele>23</ele>
        <time>2014-04-20T13:42:28Z</time>
      </trkpt>
      <trkpt lat="47.34646" lon="-0.2295">
        <ele>27.3</ele>
        <time>2014-04-20T13:42:36Z</time>
      </trkpt>
      <trkpt lat="47.34702" lon="-0.22902">
        <ele>26.3</ele>
        <time>2014-04-20T13:42:46Z</time>
      </trkpt>
      <trkpt lat="47.34762" lon="-0.22849">
        <ele>27.3</ele>
        <time>2014-04-20T13:42:57Z</time>
      </trkpt>
      <trkpt lat="47.34805" lon="-0.2281">
        <ele>23</ele>
        <time>2014-04-20T13:43:06Z</time>
      </trkpt>
      <trkpt lat="47.34839" lon="-0.22782">
        <ele>23</ele>
        <time>2014-04-20T13:43:14Z</time>
      </trkpt>
      <trkpt lat="47.34859" lon="-0.22764">
        <ele>23</ele>
        <time>2014-04-20T13:43:20Z</time>
      </trkpt>
      <trkpt lat="47.34884" lon="-0.22743">
        <ele>23</ele>
        <time>2014-04-20T13:43:26Z</time>
      </trkpt>
      <trkpt lat="47.34926" lon="-0.22706">
        <ele>23</ele>
        <time>2014-04-20T13:43:36Z</time>
      </trkpt>
      <trkpt lat="47.34951" lon="-0.22684">
        <ele>23.6</ele>
        <time>2014-04-20T13:43:42Z</time>
      </trkpt>
      <trkpt lat="47.34963" lon="-0.22674">
        <ele>25.6</ele>
        <time>2014-04-20T13:43:46Z</time>
      </trkpt>
      <trkpt lat="47.34964" lon="-0.22673">
        <ele>25.9</ele>
        <time>2014-04-20T13:43:51Z</time>
      </trkpt>
      <trkpt lat="47.34968" lon="-0.22669">
        <ele>27</ele>
        <time>2014-04-20T13:44:03Z</time>
      </trkpt>
      <trkpt lat="47.34972" lon="-0.22666">
        <ele>27.9</ele>
        <time>2014-04-20T13:44:09Z</time>
      </trkpt>
      <trkpt lat="47.34972" lon="-0.22666">
        <ele>27.9</ele>
        <time>2014-04-20T13:44:45Z</time>
      </trkpt>
      <trkpt lat="47.34963" lon="-0.22642">
        <ele>26.3</ele>
        <time>2014-04-20T13:44:52Z</time>
      </trkpt>
      <trkpt lat="47.34949" lon="-0.22614">
        <ele>26.7</ele>
        <time>2014-04-20T13:45:00Z</time>
      </trkpt>
      <trkpt lat="47.34936" lon="-0.22588">
        <ele>25.8</ele>
        <time>2014-04-20T13:45:06Z</time>
      </trkpt>
      <trkpt lat="47.34916" lon="-0.2255">
        <ele>26.9</ele>
        <time>2014-04-20T13:45:13Z</time>
      </trkpt>
      <trkpt lat="47.34895" lon="-0.2251">
        <ele>25.9</ele>
        <time>2014-04-20T13:45:20Z</time>
      </trkpt>
      <trkpt lat="47.34877" lon="-0.22474">
        <ele>25.7</ele>
        <time>2014-04-20T13:45:27Z</time>
      </trkpt>
      <trkpt lat="47.34856" lon="-0.22432">
        <ele>26.1</ele>
        <time>2014-04-20T13:45:35Z</time>
      </trkpt>
      <trkpt lat="47.34851" lon="-0.22422">
        <ele>25.9</ele>
        <time>2014-04-20T13:45:37Z</time>
      </trkpt>
      <trkpt lat="47.34837" lon="-0.22398">
        <ele>27.2</ele>
        <time>2014-04-20T13:45:41Z</time>
      </trkpt>
      <trkpt lat="47.34837" lon="-0.22398">
        <ele>27.2</ele>
        <time>2014-04-20T13:45:43Z</time>
      </trkpt>
      <trkpt lat="47.34853" lon="-0.22449">
        <ele>25.4</ele>
        <time>2014-04-20T13:45:50Z</time>
      </trkpt>
      <trkpt lat="47.34863" lon="-0.22478">
        <ele>24.1</ele>
        <time>2014-04-20T13:45:57Z</time>
      </trkpt>
      <trkpt lat="47.34871" lon="-0.22496">
        <ele>24.5</ele>
        <time>2014-04-20T13:46:02Z</time>
      </trkpt>
      <trkpt lat="47.34869" lon="-0.22509">
        <ele>23.8</ele>
        <time>2014-04-20T13:46:06Z</time>
      </trkpt>
      <trkpt lat="47.34851" lon="-0.22518">
        <ele>23</ele>
        <time>2014-04-20T13:46:09Z</time>
      </trkpt>
      <trkpt lat="47.34847" lon="-0.22463">
        <ele>24</ele>
        <time>2014-04-20T13:46:17Z</time>
      </trkpt>
      <trkpt lat="47.3482" lon="-0.22411">
        <ele>24.7</ele>
        <time>2014-04-20T13:46:27Z</time>
      </trkpt>
      <trkpt lat="47.34805" lon="-0.22379">
        <ele>23.7</ele>
        <time>2014-04-20T13:46:34Z</time>
      </trkpt>
      <trkpt lat="47.34794" lon="-0.22349">
        <ele>24.7</ele>
        <time>2014-04-20T13:46:40Z</time>
      </trkpt>
      <trkpt lat="47.34786" lon="-0.22311">
        <ele>24.5</ele>
        <time>2014-04-20T13:46:47Z</time>
      </trkpt>
      <trkpt lat="47.3478" lon="-0.22266">
        <ele>23.3</ele>
        <time>2014-04-20T13:46:54Z</time>
      </trkpt>
      <trkpt lat="47.34779" lon="-0.22262">
        <ele>23.2</ele>
        <time>2014-04-20T13:47:17Z</time>
      </trkpt>
      <trkpt lat="47.34777" lon="-0.22242">
        <ele>23.6</ele>
        <time>2014-04-20T13:47:24Z</time>
      </trkpt>
      <trkpt lat="47.34773" lon="-0.22213">
        <ele>25</ele>
        <time>2014-04-20T13:47:30Z</time>
      </trkpt>
      <trkpt lat="47.34768" lon="-0.22182">
        <ele>25.5</ele>
        <time>2014-04-20T13:47:36Z</time>
      </trkpt>
      <trkpt lat="47.34761" lon="-0.22145">
        <ele>24.9</ele>
        <time>2014-04-20T13:47:43Z</time>
      </trkpt>
      <trkpt lat="47.34751" lon="-0.22104">
        <ele>23.2</ele>
        <time>2014-04-20T13:47:50Z</time>
      </trkpt>
      <trkpt lat="47.34749" lon="-0.22092">
        <ele>23</ele>
        <time>2014-04-20T13:47:52Z</time>
      </trkpt>
      <trkpt lat="47.3467" lon="-0.22081">
        <ele>24</ele>
        <time>2014-04-20T13:47:59Z</time>
      </trkpt>
      <trkpt lat="47.34658" lon="-0.22071">
        <ele>23.8</ele>
        <time>2014-04-20T13:48:02Z</time>
      </trkpt>
      <trkpt lat="47.34643" lon="-0.22047">
        <ele>24</ele>
        <time>2014-04-20T13:48:07Z</time>
      </trkpt>
      <trkpt lat="47.34594" lon="-0.22067">
        <ele>23.2</ele>
        <time>2014-04-20T13:48:13Z</time>
      </trkpt>
      <trkpt lat="47.34617" lon="-0.22024">
        <ele>23.3</ele>
        <time>2014-04-20T13:48:17Z</time>
      </trkpt>
      <trkpt lat="47.34614" lon="-0.22029">
        <ele>23.1</ele>
        <time>2014-04-20T13:48:18Z</time>
      </trkpt>
      <trkpt lat="47.34596" lon="-0.22044">
        <ele>23.2</ele>
        <time>2014-04-20T13:48:24Z</time>
      </trkpt>
      <trkpt lat="47.34586" lon="-0.22044">
        <ele>23.4</ele>
        <time>2014-04-20T13:48:28Z</time>
      </trkpt>
      <trkpt lat="47.34584" lon="-0.22042">
        <ele>23.5</ele>
        <time>2014-04-20T13:48:33Z</time>
      </trkpt>
      <trkpt lat="47.34584" lon="-0.22042">
        <ele>23.5</ele>
        <time>2014-04-20T13:49:30Z</time>
      </trkpt>
      <trkpt lat="47.34576" lon="-0.22034">
        <ele>23.6</ele>
        <time>2014-04-20T13:49:36Z</time>
      </trkpt>
      <trkpt lat="47.34571" lon="-0.22026">
        <ele>23.5</ele>
        <time>2014-04-20T13:49:41Z</time>
      </trkpt>
      <trkpt lat="47.34562" lon="-0.22008">
        <ele>23.1</ele>
        <time>2014-04-20T13:49:47Z</time>
      </trkpt>
      <trkpt lat="47.34548" lon="-0.21979">
        <ele>23.5</ele>
        <time>2014-04-20T13:49:55Z</time>
      </trkpt>
      <trkpt lat="47.34537" lon="-0.21955">
        <ele>23.3</ele>
        <time>2014-04-20T13:50:01Z</time>
      </trkpt>
      <trkpt lat="47.34521" lon="-0.21918">
        <ele>23.7</ele>
        <time>2014-04-20T13:50:09Z</time>
      </trkpt>
      <trkpt lat="47.34499" lon="-0.21875">
        <ele>23.5</ele>
        <time>2014-04-20T13:50:18Z</time>
      </trkpt>
      <trkpt lat="47.34491" lon="-0.21861">
        <ele>23.7</ele>
        <time>2014-04-20T13:50:21Z</time>
      </trkpt>
      <trkpt lat="47.34471" lon="-0.21828">
        <ele>24</ele>
        <time>2014-04-20T13:50:28Z</time>
      </trkpt>
      <trkpt lat="47.34457" lon="-0.21789">
        <ele>24.1</ele>
        <time>2014-04-20T13:50:35Z</time>
      </trkpt>
      <trkpt lat="47.34438" lon="-0.21749">
        <ele>24.6</ele>
        <time>2014-04-20T13:50:43Z</time>
      </trkpt>
      <trkpt lat="47.34428" lon="-0.21729">
        <ele>24.2</ele>
        <time>2014-04-20T13:50:48Z</time>
      </trkpt>
      <trkpt lat="47.34414" lon="-0.21704">
        <ele>24.5</ele>
        <time>2014-04-20T13:50:55Z</time>
      </trkpt>
      <trkpt lat="47.34398" lon="-0.21675">
        <ele>24.1</ele>
        <time>2014-04-20T13:51:02Z</time>
      </trkpt>
      <trkpt lat="47.34392" lon="-0.21663">
        <ele>24.2</ele>
        <time>2014-04-20T13:51:05Z</time>
      </trkpt>
      <trkpt lat="47.34371" lon="-0.21627">
        <ele>24.3</ele>
        <time>2014-04-20T13:51:14Z</time>
      </trkpt>
      <trkpt lat="47.34362" lon="-0.21611">
        <ele>25</ele>
        <time>2014-04-20T13:51:19Z</time>
      </trkpt>
      <trkpt lat="47.34354" lon="-0.21596">
        <ele>24.5</ele>
        <time>2014-04-20T13:51:24Z</time>
      </trkpt>
      <trkpt lat="47.34344" lon="-0.21579">
        <ele>23.9</ele>
        <time>2014-04-20T13:51:28Z</time>
      </trkpt>
      <trkpt lat="47.34315" lon="-0.21532">
        <ele>23.4</ele>
        <time>2014-04-20T13:51:37Z</time>
      </trkpt>
      <trkpt lat="47.34296" lon="-0.21489">
        <ele>24.5</ele>
        <time>2014-04-20T13:51:44Z</time>
      </trkpt>
      <trkpt lat="47.34288" lon="-0.21462">
        <ele>24.7</ele>
        <time>2014-04-20T13:51:49Z</time>
      </trkpt>
      <trkpt lat="47.34279" lon="-0.21428">
        <ele>25.9</ele>
        <time>2014-04-20T13:51:57Z</time>
      </trkpt>
      <trkpt lat="47.34267" lon="-0.21357">
        <ele>24</ele>
        <time>2014-04-20T13:52:05Z</time>
      </trkpt>
      <trkpt lat="47.34257" lon="-0.21304">
        <ele>23.3</ele>
        <time>2014-04-20T13:52:13Z</time>
      </trkpt>
      <trkpt lat="47.34255" lon="-0.21284">
        <ele>24.6</ele>
        <time>2014-04-20T13:52:16Z</time>
      </trkpt>
      <trkpt lat="47.34246" lon="-0.21223">
        <ele>24.7</ele>
        <time>2014-04-20T13:52:25Z</time>
      </trkpt>
      <trkpt lat="47.34237" lon="-0.21164">
        <ele>24</ele>
        <time>2014-04-20T13:52:33Z</time>
      </trkpt>
      <trkpt lat="47.34227" lon="-0.21116">
        <ele>23.9</ele>
        <time>2014-04-20T13:52:40Z</time>
      </trkpt>
      <trkpt lat="47.34216" lon="-0.21068">
        <ele>24.1</ele>
        <time>2014-04-20T13:52:47Z</time>
      </trkpt>
      <trkpt lat="47.34207" lon="-0.2103">
        <ele>23.4</ele>
        <time>2014-04-20T13:52:53Z</time>
      </trkpt>
      <trkpt lat="47.342" lon="-0.21002">
        <ele>23.9</ele>
        <time>2014-04-20T13:52:58Z</time>
      </trkpt>
      <trkpt lat="47.34189" lon="-0.2096">
        <ele>23.8</ele>
        <time>2014-04-20T13:53:05Z</time>
      </trkpt>
      <trkpt lat="47.34174" lon="-0.20914">
        <ele>24.1</ele>
        <time>2014-04-20T13:53:12Z</time>
      </trkpt>
      <trkpt lat="47.34155" lon="-0.20847">
        <ele>24.1</ele>
        <time>2014-04-20T13:53:21Z</time>
      </trkpt>
      <trkpt lat="47.3414" lon="-0.20795">
        <ele>25</ele>
        <time>2014-04-20T13:53:28Z</time>
      </trkpt>
      <trkpt lat="47.34124" lon="-0.20748">
        <ele>24</ele>
        <time>2014-04-20T13:53:35Z</time>
      </trkpt>
      <trkpt lat="47.34103" lon="-0.20683">
        <ele>24.4</ele>
        <time>2014-04-20T13:53:44Z</time>
      </trkpt>
      <trkpt lat="47.34084" lon="-0.20636">
        <ele>25</ele>
        <time>2014-04-20T13:53:51Z</time>
      </trkpt>
      <trkpt lat="47.34061" lon="-0.20592">
        <ele>24.5</ele>
        <time>2014-04-20T13:53:58Z</time>
      </trkpt>
      <trkpt lat="47.34038" lon="-0.20551">
        <ele>24</ele>
        <time>2014-04-20T13:54:06Z</time>
      </trkpt>
      <trkpt lat="47.34024" lon="-0.20521">
        <ele>24.8</ele>
        <time>2014-04-20T13:54:13Z</time>
      </trkpt>
      <trkpt lat="47.3402" lon="-0.20512">
        <ele>24.5</ele>
        <time>2014-04-20T13:54:15Z</time>
      </trkpt>
      <trkpt lat="47.33994" lon="-0.2046">
        <ele>24.6</ele>
        <time>2014-04-20T13:54:25Z</time>
      </trkpt>
      <trkpt lat="47.33979" lon="-0.20432">
        <ele>24.2</ele>
        <time>2014-04-20T13:54:31Z</time>
      </trkpt>
      <trkpt lat="47.33971" lon="-0.20415">
        <ele>24.9</ele>
        <time>2014-04-20T13:54:36Z</time>
      </trkpt>
      <trkpt lat="47.33961" lon="-0.20396">
        <ele>24.5</ele>
        <time>2014-04-20T13:54:41Z</time>
      </trkpt>
      <trkpt lat="47.33953" lon="-0.20379">
        <ele>24.5</ele>
        <time>2014-04-20T13:54:46Z</time>
      </trkpt>
      <trkpt lat="47.3395" lon="-0.20374">
        <ele>24.6</ele>
        <time>2014-04-20T13:54:48Z</time>
      </trkpt>
      <trkpt lat="47.33949" lon="-0.20372">
        <ele>24.7</ele>
        <time>2014-04-20T13:54:53Z</time>
      </trkpt>
      <trkpt lat="47.33949" lon="-0.20372">
        <ele>24.7</ele>
        <time>2014-04-20T13:54:59Z</time>
      </trkpt>
      <trkpt lat="47.33906" lon="-0.20311">
        <ele>25</ele>
        <time>2014-04-20T13:55:02Z</time>
      </trkpt>
      <trkpt lat="47.33894" lon="-0.2029">
        <ele>24.7</ele>
        <time>2014-04-20T13:55:06Z</time>
      </trkpt>
      <trkpt lat="47.33879" lon="-0.20261">
        <ele>24.3</ele>
        <time>2014-04-20T13:55:11Z</time>
      </trkpt>
      <trkpt lat="47.33859" lon="-0.20224">
        <ele>24.8</ele>
        <time>2014-04-20T13:55:18Z</time>
      </trkpt>
      <trkpt lat="47.33848" lon="-0.20198">
        <ele>24.1</ele>
        <time>2014-04-20T13:55:23Z</time>
      </trkpt>
      <trkpt lat="47.33844" lon="-0.20196">
        <ele>23.7</ele>
        <time>2014-04-20T13:55:28Z</time>
      </trkpt>
      <trkpt lat="47.33838" lon="-0.20188">
        <ele>24</ele>
        <time>2014-04-20T13:55:34Z</time>
      </trkpt>
      <trkpt lat="47.33832" lon="-0.20173">
        <ele>25.2</ele>
        <time>2014-04-20T13:55:40Z</time>
      </trkpt>
      <trkpt lat="47.33826" lon="-0.20161">
        <ele>25.4</ele>
        <time>2014-04-20T13:55:45Z</time>
      </trkpt>
      <trkpt lat="47.33825" lon="-0.20159">
        <ele>25.3</ele>
        <time>2014-04-20T13:55:46Z</time>
      </trkpt>
      <trkpt lat="47.33825" lon="-0.20158">
        <ele>25.3</ele>
        <time>2014-04-20T13:56:26Z</time>
      </trkpt>
      <trkpt lat="47.33825" lon="-0.20158">
        <ele>25.3</ele>
        <time>2014-04-20T13:58:06Z</time>
      </trkpt>
      <trkpt lat="47.3382" lon="-0.20149">
        <ele>24.9</ele>
        <time>2014-04-20T13:58:18Z</time>
      </trkpt>
      <trkpt lat="47.3382" lon="-0.20149">
        <ele>24.9</ele>
        <time>2014-04-20T13:58:20Z</time>
      </trkpt>
      <trkpt lat="47.3382" lon="-0.20149">
        <ele>24.9</ele>
        <time>2014-04-20T13:58:24Z</time>
      </trkpt>
      <trkpt lat="47.3382" lon="-0.20149">
        <ele>24.9</ele>
        <time>2014-04-20T13:58:26Z</time>
      </trkpt>
      <trkpt lat="47.3382" lon="-0.20149">
        <ele>24.9</ele>
        <time>2014-04-20T13:58:34Z</time>
      </trkpt>
      <trkpt lat="47.33836" lon="-0.20102">
        <ele>25.6</ele>
      </trkpt>
      <trkpt lat="47.33817" lon="-0.20067">
        <ele>25.9</ele>
      </trkpt>
      <trkpt lat="47.33754" lon="-0.19983">
        <ele>25.8</ele>
      </trkpt>
      <trkpt lat="47.33709" lon="-0.19935">
        <ele>25.1</ele>
      </trkpt>
      <trkpt lat="47.33665" lon="-0.19865">
        <ele>23.8</ele>
      </trkpt>
      <trkpt lat="47.33623" lon="-0.19779">
        <ele>25.5</ele>
      </trkpt>
      <trkpt lat="47.33591" lon="-0.19742">
        <ele>24.4</ele>
      </trkpt>
      <trkpt lat="47.33539" lon="-0.1966">
        <ele>24.3</ele>
      </trkpt>
      <trkpt lat="47.33496" lon="-0.19563">
        <ele>24.3</ele>
      </trkpt>
      <trkpt lat="47.3342" lon="-0.19338">
        <ele>24.2</ele>
      </trkpt>
      <trkpt lat="47.33352" lon="-0.19118">
        <ele>25.2</ele>
      </trkpt>
      <trkpt lat="47.33304" lon="-0.19023">
        <ele>24.4</ele>
      </trkpt>
      <trkpt lat="47.33244" lon="-0.18861">
        <ele>25.4</ele>
      </trkpt>
      <trkpt lat="47.3315" lon="-0.18711">
        <ele>24.7</ele>
      </trkpt>
      <trkpt lat="47.33076" lon="-0.18604">
        <ele>25.3</ele>
      </trkpt>
      <trkpt lat="47.33023" lon="-0.18489">
        <ele>24.7</ele>
      </trkpt>
      <trkpt lat="47.32996" lon="-0.18382">
        <ele>26.7</ele>
      </trkpt>
      <trkpt lat="47.32977" lon="-0.18347">
        <ele>25.5</ele>
        <time>2014-04-20T14:18:53Z</time>
      </trkpt>
      <trkpt lat="47.3296" lon="-0.18329">
        <ele>25.1</ele>
        <time>2014-04-20T14:18:58Z</time>
      </trkpt>
      <trkpt lat="47.32954" lon="-0.18319">
        <ele>25.2</ele>
        <time>2014-04-20T14:19:00Z</time>
      </trkpt>
      <trkpt lat="47.32938" lon="-0.18293">
        <ele>25</ele>
        <time>2014-04-20T14:19:06Z</time>
      </trkpt>
      <trkpt lat="47.32926" lon="-0.18275">
        <ele>25.1</ele>
        <time>2014-04-20T14:19:10Z</time>
      </trkpt>
      <trkpt lat="47.32911" lon="-0.18252">
        <ele>25</ele>
        <time>2014-04-20T14:19:15Z</time>
      </trkpt>
      <trkpt lat="47.32906" lon="-0.18243">
        <ele>25.5</ele>
        <time>2014-04-20T14:19:17Z</time>
      </trkpt>
      <trkpt lat="47.32888" lon="-0.18209">
        <ele>25.4</ele>
        <time>2014-04-20T14:19:24Z</time>
      </trkpt>
      <trkpt lat="47.32876" lon="-0.1817">
        <ele>26.5</ele>
        <time>2014-04-20T14:19:31Z</time>
      </trkpt>
      <trkpt lat="47.32866" lon="-0.18132">
        <ele>26.8</ele>
        <time>2014-04-20T14:19:38Z</time>
      </trkpt>
      <trkpt lat="47.32865" lon="-0.1813">
        <ele>26.9</ele>
        <time>2014-04-20T14:19:40Z</time>
      </trkpt>
      <trkpt lat="47.32852" lon="-0.181">
        <ele>25.9</ele>
        <time>2014-04-20T14:19:46Z</time>
      </trkpt>
      <trkpt lat="47.32841" lon="-0.18076">
        <ele>26</ele>
        <time>2014-04-20T14:19:52Z</time>
      </trkpt>
      <trkpt lat="47.32839" lon="-0.1807">
        <ele>26.8</ele>
        <time>2014-04-20T14:19:54Z</time>
      </trkpt>
      <trkpt lat="47.32836" lon="-0.18061">
        <ele>28.1</ele>
        <time>2014-04-20T14:19:58Z</time>
      </trkpt>
      <trkpt lat="47.32824" lon="-0.18024">
        <ele>25.9</ele>
        <time>2014-04-20T14:20:06Z</time>
      </trkpt>
      <trkpt lat="47.32814" lon="-0.17981">
        <ele>25.7</ele>
        <time>2014-04-20T14:20:14Z</time>
      </trkpt>
      <trkpt lat="47.32804" lon="-0.17945">
        <ele>27.7</ele>
        <time>2014-04-20T14:20:20Z</time>
      </trkpt>
      <trkpt lat="47.32785" lon="-0.17903">
        <ele>26.4</ele>
        <time>2014-04-20T14:20:27Z</time>
      </trkpt>
      <trkpt lat="47.32768" lon="-0.17866">
        <ele>26.5</ele>
        <time>2014-04-20T14:20:34Z</time>
      </trkpt>
      <trkpt lat="47.32749" lon="-0.17827">
        <ele>27.6</ele>
        <time>2014-04-20T14:20:41Z</time>
      </trkpt>
      <trkpt lat="47.32735" lon="-0.17793">
        <ele>26</ele>
        <time>2014-04-20T14:20:47Z</time>
      </trkpt>
      <trkpt lat="47.32717" lon="-0.17746">
        <ele>27.8</ele>
        <time>2014-04-20T14:20:55Z</time>
      </trkpt>
      <trkpt lat="47.32715" lon="-0.1774">
        <ele>27.2</ele>
        <time>2014-04-20T14:20:56Z</time>
      </trkpt>
      <trkpt lat="47.3271" lon="-0.17731">
        <ele>26.2</ele>
        <time>2014-04-20T14:20:58Z</time>
      </trkpt>
      <trkpt lat="47.32701" lon="-0.17716">
        <ele>26.2</ele>
        <time>2014-04-20T14:21:02Z</time>
      </trkpt>
      <trkpt lat="47.32697" lon="-0.17711">
        <ele>26.6</ele>
        <time>2014-04-20T14:21:38Z</time>
      </trkpt>
      <trkpt lat="47.32688" lon="-0.17696">
        <ele>27</ele>
        <time>2014-04-20T14:21:42Z</time>
      </trkpt>
      <trkpt lat="47.3267" lon="-0.17667">
        <ele>28.4</ele>
        <time>2014-04-20T14:21:48Z</time>
      </trkpt>
      <trkpt lat="47.32651" lon="-0.17628">
        <ele>25.4</ele>
        <time>2014-04-20T14:21:56Z</time>
      </trkpt>
      <trkpt lat="47.32644" lon="-0.17611">
        <ele>27.2</ele>
        <time>2014-04-20T14:22:00Z</time>
      </trkpt>
      <trkpt lat="47.32632" lon="-0.17583">
        <ele>26.2</ele>
        <time>2014-04-20T14:22:07Z</time>
      </trkpt>
      <trkpt lat="47.32622" lon="-0.1756">
        <ele>26.1</ele>
        <time>2014-04-20T14:22:14Z</time>
      </trkpt>
      <trkpt lat="47.32612" lon="-0.1754">
        <ele>27.4</ele>
        <time>2014-04-20T14:22:21Z</time>
      </trkpt>
      <trkpt lat="47.32604" lon="-0.17518">
        <ele>26.5</ele>
        <time>2014-04-20T14:22:27Z</time>
      </trkpt>
      <trkpt lat="47.32595" lon="-0.17496">
        <ele>25.6</ele>
        <time>2014-04-20T14:22:33Z</time>
      </trkpt>
      <trkpt lat="47.32587" lon="-0.17474">
        <ele>27.5</ele>
        <time>2014-04-20T14:22:39Z</time>
      </trkpt>
      <trkpt lat="47.32581" lon="-0.17454">
        <ele>27.6</ele>
        <time>2014-04-20T14:22:45Z</time>
      </trkpt>
      <trkpt lat="47.3257" lon="-0.17412">
        <ele>25.6</ele>
        <time>2014-04-20T14:22:54Z</time>
      </trkpt>
      <trkpt lat="47.32561" lon="-0.17379">
        <ele>26.4</ele>
        <time>2014-04-20T14:23:01Z</time>
      </trkpt>
      <trkpt lat="47.32552" lon="-0.17334">
        <ele>28.3</ele>
        <time>2014-04-20T14:23:10Z</time>
      </trkpt>
      <trkpt lat="47.32547" lon="-0.17307">
        <ele>26.1</ele>
        <time>2014-04-20T14:23:16Z</time>
      </trkpt>
      <trkpt lat="47.32537" lon="-0.17273">
        <ele>26</ele>
        <time>2014-04-20T14:23:23Z</time>
      </trkpt>
      <trkpt lat="47.32524" lon="-0.1724">
        <ele>27.4</ele>
        <time>2014-04-20T14:23:30Z</time>
      </trkpt>
      <trkpt lat="47.3251" lon="-0.17203">
        <ele>25.8</ele>
        <time>2014-04-20T14:23:37Z</time>
      </trkpt>
      <trkpt lat="47.32492" lon="-0.17156">
        <ele>26.5</ele>
        <time>2014-04-20T14:23:45Z</time>
      </trkpt>
      <trkpt lat="47.32469" lon="-0.171">
        <ele>28.1</ele>
        <time>2014-04-20T14:23:55Z</time>
      </trkpt>
      <trkpt lat="47.3246" lon="-0.17071">
        <ele>25.9</ele>
        <time>2014-04-20T14:24:01Z</time>
      </trkpt>
      <trkpt lat="47.3245" lon="-0.17035">
        <ele>26.9</ele>
        <time>2014-04-20T14:24:08Z</time>
      </trkpt>
      <trkpt lat="47.32435" lon="-0.16988">
        <ele>26.4</ele>
        <time>2014-04-20T14:24:16Z</time>
      </trkpt>
      <trkpt lat="47.3242" lon="-0.1693">
        <ele>27.5</ele>
        <time>2014-04-20T14:24:26Z</time>
      </trkpt>
      <trkpt lat="47.32417" lon="-0.16918">
        <ele>28.9</ele>
        <time>2014-04-20T14:24:28Z</time>
      </trkpt>
      <trkpt lat="47.32402" lon="-0.16869">
        <ele>25.5</ele>
        <time>2014-04-20T14:24:36Z</time>
      </trkpt>
      <trkpt lat="47.32381" lon="-0.16807">
        <ele>26.2</ele>
        <time>2014-04-20T14:24:46Z</time>
      </trkpt>
      <trkpt lat="47.32371" lon="-0.16778">
        <ele>25.7</ele>
        <time>2014-04-20T14:24:52Z</time>
      </trkpt>
      <trkpt lat="47.32359" lon="-0.16739">
        <ele>28.2</ele>
        <time>2014-04-20T14:24:59Z</time>
      </trkpt>
      <trkpt lat="47.32347" lon="-0.16709">
        <ele>25.5</ele>
        <time>2014-04-20T14:25:06Z</time>
      </trkpt>
      <trkpt lat="47.32338" lon="-0.16682">
        <ele>26.8</ele>
        <time>2014-04-20T14:25:13Z</time>
      </trkpt>
      <trkpt lat="47.32327" lon="-0.16654">
        <ele>26.4</ele>
        <time>2014-04-20T14:25:18Z</time>
      </trkpt>
      <trkpt lat="47.32301" lon="-0.16596">
        <ele>27.3</ele>
        <time>2014-04-20T14:25:27Z</time>
      </trkpt>
      <trkpt lat="47.32264" lon="-0.16527">
        <ele>25.6</ele>
        <time>2014-04-20T14:25:38Z</time>
      </trkpt>
      <trkpt lat="47.32234" lon="-0.16461">
        <ele>25.9</ele>
        <time>2014-04-20T14:25:48Z</time>
      </trkpt>
      <trkpt lat="47.32215" lon="-0.16417">
        <ele>26.9</ele>
        <time>2014-04-20T14:25:55Z</time>
      </trkpt>
      <trkpt lat="47.32192" lon="-0.16366">
        <ele>27.5</ele>
        <time>2014-04-20T14:26:03Z</time>
      </trkpt>
      <trkpt lat="47.32164" lon="-0.16299">
        <ele>28</ele>
        <time>2014-04-20T14:26:13Z</time>
      </trkpt>
      <trkpt lat="47.32151" lon="-0.16265">
        <ele>25.4</ele>
        <time>2014-04-20T14:26:19Z</time>
      </trkpt>
      <trkpt lat="47.32143" lon="-0.16244">
        <ele>27.1</ele>
        <time>2014-04-20T14:26:25Z</time>
      </trkpt>
      <trkpt lat="47.32133" lon="-0.16216">
        <ele>27.5</ele>
        <time>2014-04-20T14:26:33Z</time>
      </trkpt>
      <trkpt lat="47.3213" lon="-0.16208">
        <ele>26.8</ele>
        <time>2014-04-20T14:26:38Z</time>
      </trkpt>
      <trkpt lat="47.32129" lon="-0.16207">
        <ele>26.8</ele>
        <time>2014-04-20T14:26:57Z</time>
      </trkpt>
      <trkpt lat="47.32129" lon="-0.16205">
        <ele>26.7</ele>
        <time>2014-04-20T14:27:30Z</time>
      </trkpt>
      <trkpt lat="47.32128" lon="-0.16203">
        <ele>26.6</ele>
        <time>2014-04-20T14:27:34Z</time>
      </trkpt>
      <trkpt lat="47.32124" lon="-0.16193">
        <ele>26.6</ele>
        <time>2014-04-20T14:27:44Z</time>
      </trkpt>
      <trkpt lat="47.32118" lon="-0.16176">
        <ele>27.6</ele>
        <time>2014-04-20T14:27:49Z</time>
      </trkpt>
      <trkpt lat="47.32109" lon="-0.16153">
        <ele>28.2</ele>
        <time>2014-04-20T14:27:55Z</time>
      </trkpt>
      <trkpt lat="47.32101" lon="-0.16135">
        <ele>27.1</ele>
        <time>2014-04-20T14:28:00Z</time>
      </trkpt>
      <trkpt lat="47.32096" lon="-0.1612">
        <ele>26.7</ele>
        <time>2014-04-20T14:28:04Z</time>
      </trkpt>
      <trkpt lat="47.32087" lon="-0.16098">
        <ele>28</ele>
        <time>2014-04-20T14:28:09Z</time>
      </trkpt>
      <trkpt lat="47.3208" lon="-0.1608">
        <ele>28.5</ele>
        <time>2014-04-20T14:28:15Z</time>
      </trkpt>
      <trkpt lat="47.32074" lon="-0.16065">
        <ele>28</ele>
        <time>2014-04-20T14:28:20Z</time>
      </trkpt>
      <trkpt lat="47.32063" lon="-0.16038">
        <ele>28.1</ele>
        <time>2014-04-20T14:28:26Z</time>
      </trkpt>
      <trkpt lat="47.32049" lon="-0.16001">
        <ele>27.8</ele>
        <time>2014-04-20T14:28:34Z</time>
      </trkpt>
      <trkpt lat="47.3204" lon="-0.15979">
        <ele>26.8</ele>
        <time>2014-04-20T14:28:40Z</time>
      </trkpt>
      <trkpt lat="47.32037" lon="-0.1597">
        <ele>26.8</ele>
        <time>2014-04-20T14:28:45Z</time>
      </trkpt>
      <trkpt lat="47.32032" lon="-0.15959">
        <ele>27.6</ele>
        <time>2014-04-20T14:29:29Z</time>
      </trkpt>
      <trkpt lat="47.32025" lon="-0.15943">
        <ele>28.5</ele>
        <time>2014-04-20T14:29:34Z</time>
      </trkpt>
      <trkpt lat="47.32018" lon="-0.15927">
        <ele>26.9</ele>
        <time>2014-04-20T14:29:39Z</time>
      </trkpt>
      <trkpt lat="47.3201" lon="-0.1591">
        <ele>26.9</ele>
        <time>2014-04-20T14:29:43Z</time>
      </trkpt>
      <trkpt lat="47.31999" lon="-0.15888">
        <ele>28.8</ele>
        <time>2014-04-20T14:29:49Z</time>
      </trkpt>
      <trkpt lat="47.3199" lon="-0.15869">
        <ele>26.7</ele>
        <time>2014-04-20T14:29:54Z</time>
      </trkpt>
      <trkpt lat="47.31981" lon="-0.15848">
        <ele>27.2</ele>
        <time>2014-04-20T14:30:00Z</time>
      </trkpt>
      <trkpt lat="47.31966" lon="-0.15813">
        <ele>27.3</ele>
        <time>2014-04-20T14:30:08Z</time>
      </trkpt>
      <trkpt lat="47.31959" lon="-0.15798">
        <ele>26.8</ele>
        <time>2014-04-20T14:30:11Z</time>
      </trkpt>
      <trkpt lat="47.31881" lon="-0.15804">
        <ele>24.7</ele>
        <time>2014-04-20T14:30:19Z</time>
      </trkpt>
      <trkpt lat="47.31858" lon="-0.15781">
        <ele>24.8</ele>
        <time>2014-04-20T14:30:25Z</time>
      </trkpt>
      <trkpt lat="47.31851" lon="-0.15774">
        <ele>24.8</ele>
        <time>2014-04-20T14:30:27Z</time>
      </trkpt>
      <trkpt lat="47.31839" lon="-0.15759">
        <ele>24.9</ele>
        <time>2014-04-20T14:30:31Z</time>
      </trkpt>
      <trkpt lat="47.31801" lon="-0.15685">
        <ele>25.3</ele>
        <time>2014-04-20T14:30:38Z</time>
      </trkpt>
      <trkpt lat="47.31791" lon="-0.15694">
        <ele>25</ele>
        <time>2014-04-20T14:30:43Z</time>
      </trkpt>
      <trkpt lat="47.31769" lon="-0.15709">
        <ele>24.5</ele>
        <time>2014-04-20T14:30:47Z</time>
      </trkpt>
      <trkpt lat="47.31769" lon="-0.15709">
        <ele>24.5</ele>
        <time>2014-04-20T14:30:49Z</time>
      </trkpt>
      <trkpt lat="47.31769" lon="-0.15709">
        <ele>24.5</ele>
        <time>2014-04-20T14:30:54Z</time>
      </trkpt>
      <trkpt lat="47.31768" lon="-0.15709">
        <ele>24.5</ele>
        <time>2014-04-20T14:30:58Z</time>
      </trkpt>
      <trkpt lat="47.31766" lon="-0.15707">
        <ele>24.6</ele>
        <time>2014-04-20T14:31:01Z</time>
      </trkpt>
      <trkpt lat="47.31745" lon="-0.15692">
        <ele>24.9</ele>
        <time>2014-04-20T14:31:08Z</time>
      </trkpt>
      <trkpt lat="47.31727" lon="-0.15664">
        <ele>25.1</ele>
        <time>2014-04-20T14:31:14Z</time>
      </trkpt>
      <trkpt lat="47.31706" lon="-0.15641">
        <ele>25.3</ele>
        <time>2014-04-20T14:31:19Z</time>
      </trkpt>
      <trkpt lat="47.31682" lon="-0.15611">
        <ele>25.1</ele>
        <time>2014-04-20T14:31:26Z</time>
      </trkpt>
      <trkpt lat="47.31675" lon="-0.15602">
        <ele>25.1</ele>
        <time>2014-04-20T14:31:28Z</time>
      </trkpt>
      <trkpt lat="47.31668" lon="-0.15592">
        <ele>25.4</ele>
        <time>2014-04-20T14:31:30Z</time>
      </trkpt>
      <trkpt lat="47.31653" lon="-0.15571">
        <ele>25.2</ele>
        <time>2014-04-20T14:31:34Z</time>
      </trkpt>
      <trkpt lat="47.3163" lon="-0.15541">
        <ele>25.2</ele>
        <time>2014-04-20T14:31:40Z</time>
      </trkpt>
      <trkpt lat="47.31604" lon="-0.15514">
        <ele>25.2</ele>
        <time>2014-04-20T14:31:46Z</time>
      </trkpt>
      <trkpt lat="47.31584" lon="-0.15492">
        <ele>25.6</ele>
        <time>2014-04-20T14:31:52Z</time>
      </trkpt>
      <trkpt lat="47.31573" lon="-0.15466">
        <ele>25.9</ele>
        <time>2014-04-20T14:31:57Z</time>
      </trkpt>
      <trkpt lat="47.31569" lon="-0.15431">
        <ele>25.5</ele>
        <time>2014-04-20T14:32:03Z</time>
      </trkpt>
      <trkpt lat="47.31569" lon="-0.15422">
        <ele>25.5</ele>
        <time>2014-04-20T14:32:05Z</time>
      </trkpt>
      <trkpt lat="47.31568" lon="-0.15414">
        <ele>25.4</ele>
        <time>2014-04-20T14:32:08Z</time>
      </trkpt>
      <trkpt lat="47.31564" lon="-0.15397">
        <ele>25.2</ele>
        <time>2014-04-20T14:32:13Z</time>
      </trkpt>
      <trkpt lat="47.31563" lon="-0.15392">
        <ele>25.2</ele>
        <time>2014-04-20T14:32:14Z</time>
      </trkpt>
      <trkpt lat="47.31563" lon="-0.15375">
        <ele>25.6</ele>
        <time>2014-04-20T14:32:17Z</time>
      </trkpt>
      <trkpt lat="47.31556" lon="-0.15351">
        <ele>26</ele>
        <time>2014-04-20T14:32:21Z</time>
      </trkpt>
      <trkpt lat="47.31554" lon="-0.15344">
        <ele>25.9</ele>
        <time>2014-04-20T14:32:23Z</time>
      </trkpt>
      <trkpt lat="47.31556" lon="-0.15328">
        <ele>26</ele>
        <time>2014-04-20T14:32:28Z</time>
      </trkpt>
      <trkpt lat="47.31557" lon="-0.15326">
        <ele>26</ele>
        <time>2014-04-20T14:32:30Z</time>
      </trkpt>
      <trkpt lat="47.31513" lon="-0.15283">
        <ele>25</ele>
        <time>2014-04-20T14:32:35Z</time>
      </trkpt>
      <trkpt lat="47.31509" lon="-0.1528">
        <ele>24.6</ele>
        <time>2014-04-20T14:32:37Z</time>
      </trkpt>
      <trkpt lat="47.31508" lon="-0.15279">
        <ele>24.6</ele>
        <time>2014-04-20T14:32:38Z</time>
      </trkpt>
      <trkpt lat="47.31509" lon="-0.15275">
        <ele>24.7</ele>
        <time>2014-04-20T14:32:44Z</time>
      </trkpt>
      <trkpt lat="47.31506" lon="-0.1525">
        <ele>25.3</ele>
        <time>2014-04-20T14:32:50Z</time>
      </trkpt>
      <trkpt lat="47.31502" lon="-0.15218">
        <ele>26.9</ele>
        <time>2014-04-20T14:32:56Z</time>
      </trkpt>
      <trkpt lat="47.31483" lon="-0.15151">
        <ele>26.2</ele>
        <time>2014-04-20T14:33:01Z</time>
      </trkpt>
      <trkpt lat="47.31484" lon="-0.15157">
        <ele>25.9</ele>
        <time>2014-04-20T14:33:08Z</time>
      </trkpt>
      <trkpt lat="47.3148" lon="-0.1513">
        <ele>27.3</ele>
        <time>2014-04-20T14:33:14Z</time>
      </trkpt>
      <trkpt lat="47.31464" lon="-0.15101">
        <ele>26.8</ele>
        <time>2014-04-20T14:33:22Z</time>
      </trkpt>
      <trkpt lat="47.31449" lon="-0.15072">
        <ele>26.4</ele>
        <time>2014-04-20T14:33:29Z</time>
      </trkpt>
      <trkpt lat="47.31437" lon="-0.15048">
        <ele>26.4</ele>
        <time>2014-04-20T14:33:35Z</time>
      </trkpt>
      <trkpt lat="47.31434" lon="-0.15042">
        <ele>26.1</ele>
        <time>2014-04-20T14:33:40Z</time>
      </trkpt>
      <trkpt lat="47.31415" lon="-0.15034">
        <ele>25.6</ele>
        <time>2014-04-20T14:33:47Z</time>
      </trkpt>
      <trkpt lat="47.31411" lon="-0.15032">
        <ele>25.5</ele>
        <time>2014-04-20T14:33:48Z</time>
      </trkpt>
      <trkpt lat="47.31401" lon="-0.15018">
        <ele>25.3</ele>
        <time>2014-04-20T14:33:55Z</time>
      </trkpt>
      <trkpt lat="47.314" lon="-0.15016">
        <ele>25.3</ele>
        <time>2014-04-20T14:34:03Z</time>
      </trkpt>
      <trkpt lat="47.314" lon="-0.15016">
        <ele>25.3</ele>
        <time>2014-04-20T14:35:06Z</time>
      </trkpt>
      <trkpt lat="47.31392" lon="-0.15">
        <ele>26</ele>
        <time>2014-04-20T14:35:13Z</time>
      </trkpt>
      <trkpt lat="47.31388" lon="-0.14992">
        <ele>25.6</ele>
        <time>2014-04-20T14:35:15Z</time>
      </trkpt>
      <trkpt lat="47.31371" lon="-0.14968">
        <ele>25</ele>
        <time>2014-04-20T14:35:21Z</time>
      </trkpt>
      <trkpt lat="47.31363" lon="-0.14962">
        <ele>25</ele>
        <time>2014-04-20T14:35:23Z</time>
      </trkpt>
      <trkpt lat="47.31338" lon="-0.14936">
        <ele>25</ele>
        <time>2014-04-20T14:35:31Z</time>
      </trkpt>
      <trkpt lat="47.31325" lon="-0.14919">
        <ele>24.7</ele>
        <time>2014-04-20T14:35:36Z</time>
      </trkpt>
      <trkpt lat="47.31312" lon="-0.149">
        <ele>24.7</ele>
        <time>2014-04-20T14:35:41Z</time>
      </trkpt>
      <trkpt lat="47.31301" lon="-0.14886">
        <ele>24.9</ele>
        <time>2014-04-20T14:35:45Z</time>
      </trkpt>
      <trkpt lat="47.31296" lon="-0.1488">
        <ele>25</ele>
        <time>2014-04-20T14:35:47Z</time>
      </trkpt>
      <trkpt lat="47.31288" lon="-0.1487">
        <ele>25.1</ele>
        <time>2014-04-20T14:35:52Z</time>
      </trkpt>
      <trkpt lat="47.31266" lon="-0.1484">
        <ele>25</ele>
        <time>2014-04-20T14:36:00Z</time>
      </trkpt>
      <trkpt lat="47.31255" lon="-0.14812">
        <ele>25</ele>
        <time>2014-04-20T14:36:05Z</time>
      </trkpt>
      <trkpt lat="47.31244" lon="-0.14798">
        <ele>25.1</ele>
        <time>2014-04-20T14:36:08Z</time>
      </trkpt>
      <trkpt lat="47.31215" lon="-0.14766">
        <ele>24.8</ele>
        <time>2014-04-20T14:36:16Z</time>
      </trkpt>
      <trkpt lat="47.31204" lon="-0.14759">
        <ele>24.8</ele>
        <time>2014-04-20T14:36:19Z</time>
      </trkpt>
      <trkpt lat="47.31187" lon="-0.14746">
        <ele>24.8</ele>
        <time>2014-04-20T14:36:24Z</time>
      </trkpt>
      <trkpt lat="47.31169" lon="-0.14732">
        <ele>24.7</ele>
        <time>2014-04-20T14:36:29Z</time>
      </trkpt>
      <trkpt lat="47.31136" lon="-0.14703">
        <ele>25.5</ele>
        <time>2014-04-20T14:36:37Z</time>
      </trkpt>
      <trkpt lat="47.311" lon="-0.14664">
        <ele>25.6</ele>
        <time>2014-04-20T14:36:46Z</time>
      </trkpt>
      <trkpt lat="47.31071" lon="-0.14637">
        <ele>25.6</ele>
        <time>2014-04-20T14:36:53Z</time>
      </trkpt>
      <trkpt lat="47.31034" lon="-0.14605">
        <ele>25.4</ele>
        <time>2014-04-20T14:37:02Z</time>
      </trkpt>
      <trkpt lat="47.31017" lon="-0.14587">
        <ele>25.5</ele>
        <time>2014-04-20T14:37:08Z</time>
      </trkpt>
      <trkpt lat="47.31009" lon="-0.14576">
        <ele>25.5</ele>
        <time>2014-04-20T14:38:34Z</time>
      </trkpt>
      <trkpt lat="47.31005" lon="-0.14571">
        <ele>25.5</ele>
        <time>2014-04-20T14:38:37Z</time>
      </trkpt>
      <trkpt lat="47.30998" lon="-0.14561">
        <ele>25.7</ele>
        <time>2014-04-20T14:38:42Z</time>
      </trkpt>
      <trkpt lat="47.30983" lon="-0.14539">
        <ele>25.7</ele>
        <time>2014-04-20T14:38:49Z</time>
      </trkpt>
      <trkpt lat="47.30958" lon="-0.14512">
        <ele>25.8</ele>
        <time>2014-04-20T14:38:57Z</time>
      </trkpt>
      <trkpt lat="47.30954" lon="-0.14508">
        <ele>25.8</ele>
        <time>2014-04-20T14:38:58Z</time>
      </trkpt>
      <trkpt lat="47.30945" lon="-0.14495">
        <ele>26</ele>
        <time>2014-04-20T14:39:02Z</time>
      </trkpt>
      <trkpt lat="47.30945" lon="-0.14495">
        <ele>26</ele>
        <time>2014-04-20T14:39:06Z</time>
      </trkpt>
      <trkpt lat="47.30945" lon="-0.14495">
        <ele>26</ele>
        <time>2014-04-20T14:39:12Z</time>
      </trkpt>
      <trkpt lat="47.30945" lon="-0.14495">
        <ele>26</ele>
        <time>2014-04-20T14:39:13Z</time>
      </trkpt>
      <trkpt lat="47.30945" lon="-0.14495">
        <ele>26</ele>
        <time>2014-04-20T14:39:19Z</time>
      </trkpt>
      <trkpt lat="47.30945" lon="-0.14495">
        <ele>26</ele>
        <time>2014-04-20T14:39:25Z</time>
      </trkpt>
      <trkpt lat="47.30945" lon="-0.14495">
        <ele>26</ele>
        <time>2014-04-20T14:39:26Z</time>
      </trkpt>
      <trkpt lat="47.30956" lon="-0.14469">
        <ele>26</ele>
        <time>2014-04-20T14:39:31Z</time>
      </trkpt>
      <trkpt lat="47.30913" lon="-0.14422">
        <ele>25.7</ele>
        <time>2014-04-20T14:39:34Z</time>
      </trkpt>
      <trkpt lat="47.30895" lon="-0.14384">
        <ele>25.4</ele>
        <time>2014-04-20T14:39:42Z</time>
      </trkpt>
      <trkpt lat="47.30892" lon="-0.14379">
        <ele>25.4</ele>
        <time>2014-04-20T14:39:43Z</time>
      </trkpt>
      <trkpt lat="47.30887" lon="-0.14371">
        <ele>25.5</ele>
        <time>2014-04-20T14:39:45Z</time>
      </trkpt>
      <trkpt lat="47.30882" lon="-0.14363">
        <ele>25.5</ele>
        <time>2014-04-20T14:39:47Z</time>
      </trkpt>
      <trkpt lat="47.30865" lon="-0.14334">
        <ele>26</ele>
        <time>2014-04-20T14:39:54Z</time>
      </trkpt>
      <trkpt lat="47.30846" lon="-0.14303">
        <ele>25.5</ele>
        <time>2014-04-20T14:40:02Z</time>
      </trkpt>
      <trkpt lat="47.30822" lon="-0.1426">
        <ele>25.5</ele>
        <time>2014-04-20T14:40:10Z</time>
      </trkpt>
      <trkpt lat="47.30818" lon="-0.14223">
        <ele>26</ele>
        <time>2014-04-20T14:40:16Z</time>
      </trkpt>
      <trkpt lat="47.30818" lon="-0.14195">
        <ele>26</ele>
        <time>2014-04-20T14:40:20Z</time>
      </trkpt>
      <trkpt lat="47.30826" lon="-0.14171">
        <ele>26</ele>
        <time>2014-04-20T14:40:24Z</time>
      </trkpt>
      <trkpt lat="47.30829" lon="-0.14167">
        <ele>26</ele>
        <time>2014-04-20T14:40:25Z</time>
      </trkpt>
      <trkpt lat="47.30838" lon="-0.14157">
        <ele>26.1</ele>
        <time>2014-04-20T14:40:30Z</time>
      </trkpt>
      <trkpt lat="47.30843" lon="-0.14156">
        <ele>26.1</ele>
        <time>2014-04-20T14:40:50Z</time>
      </trkpt>
      <trkpt lat="47.30857" lon="-0.14154">
        <ele>26.4</ele>
        <time>2014-04-20T14:40:56Z</time>
      </trkpt>
      <trkpt lat="47.3086" lon="-0.14154">
        <ele>26.4</ele>
        <time>2014-04-20T14:40:57Z</time>
      </trkpt>
      <trkpt lat="47.30885" lon="-0.14153">
        <ele>26.9</ele>
        <time>2014-04-20T14:41:03Z</time>
      </trkpt>
      <trkpt lat="47.30904" lon="-0.1414">
        <ele>27</ele>
        <time>2014-04-20T14:41:09Z</time>
      </trkpt>
      <trkpt lat="47.30908" lon="-0.14125">
        <ele>26.6</ele>
        <time>2014-04-20T14:41:12Z</time>
      </trkpt>
      <trkpt lat="47.30913" lon="-0.14105">
        <ele>26.1</ele>
        <time>2014-04-20T14:41:15Z</time>
      </trkpt>
      <trkpt lat="47.30914" lon="-0.14074">
        <ele>26</ele>
        <time>2014-04-20T14:41:20Z</time>
      </trkpt>
      <trkpt lat="47.30917" lon="-0.14055">
        <ele>26</ele>
        <time>2014-04-20T14:41:24Z</time>
      </trkpt>
      <trkpt lat="47.30924" lon="-0.1405">
        <ele>26</ele>
        <time>2014-04-20T14:41:26Z</time>
      </trkpt>
      <trkpt lat="47.30937" lon="-0.14025">
        <ele>26</ele>
        <time>2014-04-20T14:41:31Z</time>
      </trkpt>
      <trkpt lat="47.30934" lon="-0.14013">
        <ele>26</ele>
        <time>2014-04-20T14:41:33Z</time>
      </trkpt>
      <trkpt lat="47.30948" lon="-0.13956">
        <ele>26</ele>
      </trkpt>
      <trkpt lat="47.30951" lon="-0.13923">
        <ele>27.4</ele>
      </trkpt>
      <trkpt lat="47.30932" lon="-0.13883">
        <ele>27.6</ele>
      </trkpt>
      <trkpt lat="47.3091" lon="-0.13843">
        <ele>28</ele>
      </trkpt>
      <trkpt lat="47.30882" lon="-0.13797">
        <ele>27.7</ele>
      </trkpt>
      <trkpt lat="47.30814" lon="-0.13706">
        <ele>26.8</ele>
      </trkpt>
      <trkpt lat="47.30739" lon="-0.13579">
        <ele>27.5</ele>
      </trkpt>
      <trkpt lat="47.30619" lon="-0.1338">
        <ele>27.6</ele>
      </trkpt>
      <trkpt lat="47.30594" lon="-0.13326">
        <ele>27.3</ele>
      </trkpt>
      <trkpt lat="47.30543" lon="-0.13215">
        <ele>28.2</ele>
      </trkpt>
      <trkpt lat="47.30513" lon="-0.13141">
        <ele>27.9</ele>
      </trkpt>
      <trkpt lat="47.30411" lon="-0.12902">
        <ele>27.5</ele>
      </trkpt>
      <trkpt lat="47.30328" lon="-0.1271">
        <ele>27.3</ele>
      </trkpt>
      <trkpt lat="47.30301" lon="-0.12656">
        <ele>27.1</ele>
      </trkpt>
      <trkpt lat="47.30155" lon="-0.12419">
        <ele>27.6</ele>
      </trkpt>
      <trkpt lat="47.30147" lon="-0.124">
        <ele>27.4</ele>
      </trkpt>
      <trkpt lat="47.29954" lon="-0.12099">
        <ele>27.5</ele>
      </trkpt>
      <trkpt lat="47.29881" lon="-0.11986">
        <ele>28.1</ele>
      </trkpt>
      <trkpt lat="47.29856" lon="-0.11939">
        <ele>28.8</ele>
      </trkpt>
      <trkpt lat="47.29856" lon="-0.11938">
        <ele>28.8</ele>
      </trkpt>
      <trkpt lat="47.2981" lon="-0.11864">
        <ele>28.2</ele>
      </trkpt>
      <trkpt lat="47.29509" lon="-0.11383">
        <ele>29</ele>
      </trkpt>
      <trkpt lat="47.29098" lon="-0.10732">
        <ele>28.5</ele>
      </trkpt>
      <trkpt lat="47.28829" lon="-0.10301">
        <ele>29.1</ele>
      </trkpt>
      <trkpt lat="47.28347" lon="-0.0954">
        <ele>28.5</ele>
      </trkpt>
      <trkpt lat="47.2788" lon="-0.08828">
        <ele>28.4</ele>
      </trkpt>
      <trkpt lat="47.27842" lon="-0.08766">
        <ele>28.4</ele>
      </trkpt>
      <trkpt lat="47.27816" lon="-0.08707">
        <ele>29</ele>
      </trkpt>
      <trkpt lat="47.277" lon="-0.08528">
        <ele>29.4</ele>
      </trkpt>
      <trkpt lat="47.27683" lon="-0.08492">
        <ele>30.5</ele>
      </trkpt>
      <trkpt lat="47.27624" lon="-0.08415">
        <ele>28.1</ele>
      </trkpt>
      <trkpt lat="47.2757" lon="-0.08325">
        <ele>28.9</ele>
      </trkpt>
      <trkpt lat="47.27547" lon="-0.08288">
        <ele>29.3</ele>
        <time>2014-04-20T15:00:02Z</time>
      </trkpt>
      <trkpt lat="47.27524" lon="-0.08256">
        <ele>29.4</ele>
        <time>2014-04-20T15:00:10Z</time>
      </trkpt>
      <trkpt lat="47.27505" lon="-0.08232">
        <ele>29</ele>
        <time>2014-04-20T15:00:17Z</time>
      </trkpt>
      <trkpt lat="47.27494" lon="-0.08217">
        <ele>29.2</ele>
        <time>2014-04-20T15:00:21Z</time>
      </trkpt>
      <trkpt lat="47.27479" lon="-0.08205">
        <ele>29.5</ele>
        <time>2014-04-20T15:00:27Z</time>
      </trkpt>
      <trkpt lat="47.27479" lon="-0.08205">
        <ele>29.5</ele>
        <time>2014-04-20T15:00:32Z</time>
      </trkpt>
      <trkpt lat="47.27447" lon="-0.0819">
        <ele>31.7</ele>
        <time>2014-04-20T15:00:37Z</time>
      </trkpt>
      <trkpt lat="47.27419" lon="-0.08191">
        <ele>33.5</ele>
        <time>2014-04-20T15:00:41Z</time>
      </trkpt>
      <trkpt lat="47.27409" lon="-0.08186">
        <ele>32.5</ele>
        <time>2014-04-20T15:00:45Z</time>
      </trkpt>
      <trkpt lat="47.27391" lon="-0.08166">
        <ele>35.6</ele>
        <time>2014-04-20T15:00:52Z</time>
      </trkpt>
      <trkpt lat="47.27377" lon="-0.08145">
        <ele>34.3</ele>
        <time>2014-04-20T15:00:58Z</time>
      </trkpt>
      <trkpt lat="47.27365" lon="-0.08127">
        <ele>36.7</ele>
        <time>2014-04-20T15:01:04Z</time>
      </trkpt>
      <trkpt lat="47.27304" lon="-0.08128">
        <ele>37.7</ele>
        <time>2014-04-20T15:01:09Z</time>
      </trkpt>
      <trkpt lat="47.27293" lon="-0.08137">
        <ele>36.5</ele>
        <time>2014-04-20T15:01:15Z</time>
      </trkpt>
      <trkpt lat="47.27293" lon="-0.08137">
        <ele>36.5</ele>
        <time>2014-04-20T15:01:19Z</time>
      </trkpt>
      <trkpt lat="47.27293" lon="-0.08137">
        <ele>36.5</ele>
        <time>2014-04-20T15:01:21Z</time>
      </trkpt>
      <trkpt lat="47.27274" lon="-0.0817">
        <ele>29.3</ele>
        <time>2014-04-20T15:01:23Z</time>
      </trkpt>
      <trkpt lat="47.2728" lon="-0.0816">
        <ele>31.6</ele>
        <time>2014-04-20T15:01:25Z</time>
      </trkpt>
      <trkpt lat="47.27276" lon="-0.08148">
        <ele>33</ele>
        <time>2014-04-20T15:01:28Z</time>
      </trkpt>
      <trkpt lat="47.27282" lon="-0.08139">
        <ele>35.4</ele>
        <time>2014-04-20T15:01:34Z</time>
      </trkpt>
      <trkpt lat="47.27291" lon="-0.08113">
        <ele>35.5</ele>
        <time>2014-04-20T15:01:42Z</time>
      </trkpt>
      <trkpt lat="47.27294" lon="-0.08096">
        <ele>34.7</ele>
        <time>2014-04-20T15:01:50Z</time>
      </trkpt>
      <trkpt lat="47.27298" lon="-0.08084">
        <ele>34.4</ele>
        <time>2014-04-20T15:01:56Z</time>
      </trkpt>
      <trkpt lat="47.27299" lon="-0.08082">
        <ele>34.6</ele>
        <time>2014-04-20T15:01:57Z</time>
      </trkpt>
      <trkpt lat="47.27307" lon="-0.08061">
        <ele>36.9</ele>
      </trkpt>
      <trkpt lat="47.2731" lon="-0.08052">
        <ele>37.2</ele>
      </trkpt>
      <trkpt lat="47.2731" lon="-0.08052">
        <ele>37.2</ele>
      </trkpt>
      <trkpt lat="47.27311" lon="-0.0805">
        <ele>37.2</ele>
        <time>2014-04-20T15:02:23Z</time>
      </trkpt>
      <trkpt lat="47.2732" lon="-0.0804">
        <ele>36.4</ele>
        <time>2014-04-20T15:02:25Z</time>
      </trkpt>
      <trkpt lat="47.27332" lon="-0.08027">
        <ele>33.1</ele>
        <time>2014-04-20T15:02:29Z</time>
      </trkpt>
      <trkpt lat="47.27338" lon="-0.08014">
        <ele>33.2</ele>
        <time>2014-04-20T15:02:34Z</time>
      </trkpt>
      <trkpt lat="47.27359" lon="-0.08008">
        <ele>35.6</ele>
        <time>2014-04-20T15:02:41Z</time>
      </trkpt>
      <trkpt lat="47.27372" lon="-0.07991">
        <ele>32.6</ele>
        <time>2014-04-20T15:02:48Z</time>
      </trkpt>
      <trkpt lat="47.27386" lon="-0.07967">
        <ele>30.1</ele>
        <time>2014-04-20T15:02:55Z</time>
      </trkpt>
      <trkpt lat="47.27397" lon="-0.07949">
        <ele>32</ele>
        <time>2014-04-20T15:02:59Z</time>
      </trkpt>
      <trkpt lat="47.2742" lon="-0.07911">
        <ele>36.1</ele>
        <time>2014-04-20T15:03:07Z</time>
      </trkpt>
      <trkpt lat="47.27437" lon="-0.07884">
        <ele>35.7</ele>
        <time>2014-04-20T15:03:13Z</time>
      </trkpt>
      <trkpt lat="47.27456" lon="-0.07853">
        <ele>33.4</ele>
        <time>2014-04-20T15:03:20Z</time>
      </trkpt>
      <trkpt lat="47.2748" lon="-0.07817">
        <ele>35.1</ele>
        <time>2014-04-20T15:03:28Z</time>
      </trkpt>
      <trkpt lat="47.27501" lon="-0.07776">
        <ele>34.6</ele>
        <time>2014-04-20T15:03:35Z</time>
      </trkpt>
      <trkpt lat="47.27503" lon="-0.0777">
        <ele>33.6</ele>
        <time>2014-04-20T15:03:39Z</time>
      </trkpt>
      <trkpt lat="47.27503" lon="-0.0777">
        <ele>33.5</ele>
        <time>2014-04-20T15:03:41Z</time>
      </trkpt>
      <trkpt lat="47.27482" lon="-0.07788">
        <ele>31.6</ele>
        <time>2014-04-20T15:03:48Z</time>
      </trkpt>
      <trkpt lat="47.27458" lon="-0.07818">
        <ele>32.6</ele>
        <time>2014-04-20T15:03:54Z</time>
      </trkpt>
      <trkpt lat="47.27448" lon="-0.07828">
        <ele>31.4</ele>
        <time>2014-04-20T15:03:59Z</time>
      </trkpt>
      <trkpt lat="47.27444" lon="-0.07831">
        <ele>30.8</ele>
        <time>2014-04-20T15:04:01Z</time>
      </trkpt>
      <trkpt lat="47.27435" lon="-0.07818">
        <ele>30.2</ele>
        <time>2014-04-20T15:04:06Z</time>
      </trkpt>
      <trkpt lat="47.27419" lon="-0.07778">
        <ele>30.6</ele>
        <time>2014-04-20T15:04:14Z</time>
      </trkpt>
      <trkpt lat="47.27368" lon="-0.07734">
        <ele>30.9</ele>
        <time>2014-04-20T15:04:23Z</time>
      </trkpt>
      <trkpt lat="47.27336" lon="-0.07696">
        <ele>30.7</ele>
        <time>2014-04-20T15:04:31Z</time>
      </trkpt>
      <trkpt lat="47.27306" lon="-0.07661">
        <ele>30</ele>
        <time>2014-04-20T15:04:38Z</time>
      </trkpt>
      <trkpt lat="47.27274" lon="-0.07629">
        <ele>30</ele>
        <time>2014-04-20T15:04:45Z</time>
      </trkpt>
      <trkpt lat="47.27231" lon="-0.07591">
        <ele>30.1</ele>
        <time>2014-04-20T15:04:54Z</time>
      </trkpt>
      <trkpt lat="47.27195" lon="-0.07553">
        <ele>29.9</ele>
        <time>2014-04-20T15:05:02Z</time>
      </trkpt>
      <trkpt lat="47.27166" lon="-0.0751">
        <ele>29.4</ele>
        <time>2014-04-20T15:05:09Z</time>
      </trkpt>
      <trkpt lat="47.27128" lon="-0.07452">
        <ele>29.4</ele>
        <time>2014-04-20T15:05:19Z</time>
      </trkpt>
      <trkpt lat="47.27108" lon="-0.07423">
        <ele>29.2</ele>
        <time>2014-04-20T15:05:25Z</time>
      </trkpt>
      <trkpt lat="47.27082" lon="-0.07384">
        <ele>28.9</ele>
        <time>2014-04-20T15:05:33Z</time>
      </trkpt>
      <trkpt lat="47.27057" lon="-0.07347">
        <ele>28.9</ele>
        <time>2014-04-20T15:05:41Z</time>
      </trkpt>
      <trkpt lat="47.2705" lon="-0.07336">
        <ele>29</ele>
        <time>2014-04-20T15:05:44Z</time>
      </trkpt>
      <trkpt lat="47.27048" lon="-0.07333">
        <ele>29</ele>
        <time>2014-04-20T15:06:02Z</time>
      </trkpt>
      <trkpt lat="47.27038" lon="-0.07316">
        <ele>29</ele>
        <time>2014-04-20T15:06:08Z</time>
      </trkpt>
      <trkpt lat="47.27018" lon="-0.07285">
        <ele>29.3</ele>
        <time>2014-04-20T15:06:15Z</time>
      </trkpt>
      <trkpt lat="47.26986" lon="-0.0724">
        <ele>29</ele>
        <time>2014-04-20T15:06:24Z</time>
      </trkpt>
      <trkpt lat="47.26956" lon="-0.07193">
        <ele>29</ele>
        <time>2014-04-20T15:06:33Z</time>
      </trkpt>
      <trkpt lat="47.26946" lon="-0.07177">
        <ele>29</ele>
        <time>2014-04-20T15:06:36Z</time>
      </trkpt>
      <trkpt lat="47.26936" lon="-0.07161">
        <ele>29.2</ele>
        <time>2014-04-20T15:06:40Z</time>
      </trkpt>
      <trkpt lat="47.26934" lon="-0.07158">
        <ele>29.3</ele>
        <time>2014-04-20T15:06:42Z</time>
      </trkpt>
      <trkpt lat="47.26924" lon="-0.07158">
        <ele>29.5</ele>
        <time>2014-04-20T15:06:51Z</time>
      </trkpt>
      <trkpt lat="47.26924" lon="-0.07158">
        <ele>29.5</ele>
        <time>2014-04-20T15:06:55Z</time>
      </trkpt>
      <trkpt lat="47.26924" lon="-0.07158">
        <ele>29.5</ele>
        <time>2014-04-20T15:06:58Z</time>
      </trkpt>
      <trkpt lat="47.26924" lon="-0.07158">
        <ele>29.5</ele>
        <time>2014-04-20T15:07:04Z</time>
      </trkpt>
      <trkpt lat="47.26912" lon="-0.07148">
        <ele>29.3</ele>
        <time>2014-04-20T15:07:09Z</time>
      </trkpt>
      <trkpt lat="47.26909" lon="-0.07145">
        <ele>29.2</ele>
        <time>2014-04-20T15:07:16Z</time>
      </trkpt>
      <trkpt lat="47.26909" lon="-0.07144">
        <ele>29.1</ele>
        <time>2014-04-20T15:07:38Z</time>
      </trkpt>
      <trkpt lat="47.26909" lon="-0.07144">
        <ele>29.1</ele>
        <time>2014-04-20T15:12:18Z</time>
      </trkpt>
      <trkpt lat="47.26909" lon="-0.07144">
        <ele>29.1</ele>
        <time>2014-04-20T15:12:32Z</time>
      </trkpt>
      <trkpt lat="47.26903" lon="-0.07135">
        <ele>29.2</ele>
        <time>2014-04-20T15:12:40Z</time>
      </trkpt>
      <trkpt lat="47.26899" lon="-0.07128">
        <ele>29.4</ele>
        <time>2014-04-20T15:12:46Z</time>
      </trkpt>
      <trkpt lat="47.26898" lon="-0.07127">
        <ele>29.4</ele>
        <time>2014-04-20T15:12:48Z</time>
      </trkpt>
      <trkpt lat="47.26891" lon="-0.07114">
        <ele>29.9</ele>
        <time>2014-04-20T15:12:57Z</time>
      </trkpt>
      <trkpt lat="47.26883" lon="-0.07096">
        <ele>29.9</ele>
        <time>2014-04-20T15:13:40Z</time>
      </trkpt>
      <trkpt lat="47.2689" lon="-0.07093">
        <ele>30</ele>
        <time>2014-04-20T15:13:44Z</time>
      </trkpt>
      <trkpt lat="47.26887" lon="-0.07089">
        <ele>30</ele>
        <time>2014-04-20T15:13:50Z</time>
      </trkpt>
      <trkpt lat="47.26884" lon="-0.07086">
        <ele>30</ele>
        <time>2014-04-20T15:13:56Z</time>
      </trkpt>
      <trkpt lat="47.26877" lon="-0.07074">
        <ele>30</ele>
        <time>2014-04-20T15:14:01Z</time>
      </trkpt>
      <trkpt lat="47.26862" lon="-0.07052">
        <ele>30.8</ele>
        <time>2014-04-20T15:14:07Z</time>
      </trkpt>
      <trkpt lat="47.26843" lon="-0.07024">
        <ele>31.3</ele>
        <time>2014-04-20T15:14:14Z</time>
      </trkpt>
      <trkpt lat="47.26831" lon="-0.07003">
        <ele>31.9</ele>
        <time>2014-04-20T15:14:19Z</time>
      </trkpt>
      <trkpt lat="47.26809" lon="-0.06969">
        <ele>32.6</ele>
        <time>2014-04-20T15:14:28Z</time>
      </trkpt>
      <trkpt lat="47.2679" lon="-0.06946">
        <ele>33.5</ele>
        <time>2014-04-20T15:14:34Z</time>
      </trkpt>
      <trkpt lat="47.26786" lon="-0.06937">
        <ele>33.6</ele>
        <time>2014-04-20T15:14:38Z</time>
      </trkpt>
      <trkpt lat="47.26783" lon="-0.06933">
        <ele>33.7</ele>
        <time>2014-04-20T15:14:40Z</time>
      </trkpt>
      <trkpt lat="47.26775" lon="-0.06924">
        <ele>33.8</ele>
        <time>2014-04-20T15:14:44Z</time>
      </trkpt>
      <trkpt lat="47.26776" lon="-0.06924">
        <ele>33.8</ele>
        <time>2014-04-20T15:14:45Z</time>
      </trkpt>
      <trkpt lat="47.26776" lon="-0.06924">
        <ele>33.8</ele>
        <time>2014-04-20T15:16:47Z</time>
      </trkpt>
      <trkpt lat="47.26751" lon="-0.06963">
        <ele>30.3</ele>
        <time>2014-04-20T15:16:57Z</time>
      </trkpt>
      <trkpt lat="47.26734" lon="-0.06983">
        <ele>33.5</ele>
        <time>2014-04-20T15:17:03Z</time>
      </trkpt>
      <trkpt lat="47.26728" lon="-0.06989">
        <ele>34.3</ele>
        <time>2014-04-20T15:17:09Z</time>
      </trkpt>
      <trkpt lat="47.26728" lon="-0.06989">
        <ele>34.3</ele>
        <time>2014-04-20T15:17:13Z</time>
      </trkpt>
      <trkpt lat="47.2668" lon="-0.07039">
        <ele>26</ele>
        <time>2014-04-20T15:17:22Z</time>
      </trkpt>
      <trkpt lat="47.26649" lon="-0.07077">
        <ele>26</ele>
        <time>2014-04-20T15:17:30Z</time>
      </trkpt>
      <trkpt lat="47.26608" lon="-0.07123">
        <ele>26</ele>
        <time>2014-04-20T15:17:40Z</time>
      </trkpt>
      <trkpt lat="47.26562" lon="-0.07172">
        <ele>29.1</ele>
        <time>2014-04-20T15:17:51Z</time>
      </trkpt>
      <trkpt lat="47.26554" lon="-0.0718">
        <ele>31.5</ele>
        <time>2014-04-20T15:17:53Z</time>
      </trkpt>
      <trkpt lat="47.26541" lon="-0.07204">
        <ele>34</ele>
        <time>2014-04-20T15:17:57Z</time>
      </trkpt>
      <trkpt lat="47.26509" lon="-0.07239">
        <ele>33.8</ele>
        <time>2014-04-20T15:18:05Z</time>
      </trkpt>
      <trkpt lat="47.26481" lon="-0.0727">
        <ele>34</ele>
        <time>2014-04-20T15:18:12Z</time>
      </trkpt>
      <trkpt lat="47.2645" lon="-0.07306">
        <ele>34</ele>
        <time>2014-04-20T15:18:20Z</time>
      </trkpt>
      <trkpt lat="47.26444" lon="-0.07315">
        <ele>33.7</ele>
        <time>2014-04-20T15:18:22Z</time>
      </trkpt>
      <trkpt lat="47.26423" lon="-0.07338">
        <ele>33.7</ele>
        <time>2014-04-20T15:18:28Z</time>
      </trkpt>
      <trkpt lat="47.26408" lon="-0.07355">
        <ele>33.9</ele>
        <time>2014-04-20T15:18:32Z</time>
      </trkpt>
      <trkpt lat="47.26378" lon="-0.07391">
        <ele>34</ele>
        <time>2014-04-20T15:18:40Z</time>
      </trkpt>
      <trkpt lat="47.26359" lon="-0.07407">
        <ele>33.7</ele>
        <time>2014-04-20T15:18:47Z</time>
      </trkpt>
      <trkpt lat="47.26359" lon="-0.07407">
        <ele>33.7</ele>
        <time>2014-04-20T15:18:48Z</time>
      </trkpt>
      <trkpt lat="47.26334" lon="-0.07435">
        <ele>26.9</ele>
        <time>2014-04-20T15:18:53Z</time>
      </trkpt>
      <trkpt lat="47.26329" lon="-0.0744">
        <ele>26.2</ele>
        <time>2014-04-20T15:21:47Z</time>
      </trkpt>
      <trkpt lat="47.26318" lon="-0.07453">
        <ele>26</ele>
        <time>2014-04-20T15:21:52Z</time>
      </trkpt>
      <trkpt lat="47.26296" lon="-0.07478">
        <ele>26</ele>
        <time>2014-04-20T15:21:58Z</time>
      </trkpt>
      <trkpt lat="47.26268" lon="-0.07511">
        <ele>26</ele>
        <time>2014-04-20T15:22:06Z</time>
      </trkpt>
      <trkpt lat="47.26249" lon="-0.07532">
        <ele>26</ele>
        <time>2014-04-20T15:22:13Z</time>
      </trkpt>
      <trkpt lat="47.26226" lon="-0.07558">
        <ele>26</ele>
        <time>2014-04-20T15:22:20Z</time>
      </trkpt>
      <trkpt lat="47.26198" lon="-0.07591">
        <ele>26</ele>
        <time>2014-04-20T15:22:28Z</time>
      </trkpt>
      <trkpt lat="47.26184" lon="-0.07607">
        <ele>26</ele>
        <time>2014-04-20T15:22:32Z</time>
      </trkpt>
      <trkpt lat="47.26166" lon="-0.07627">
        <ele>26</ele>
        <time>2014-04-20T15:22:36Z</time>
      </trkpt>
      <trkpt lat="47.26149" lon="-0.07647">
        <ele>27.1</ele>
        <time>2014-04-20T15:22:40Z</time>
      </trkpt>
      <trkpt lat="47.26138" lon="-0.07663">
        <ele>31.2</ele>
        <time>2014-04-20T15:22:45Z</time>
      </trkpt>
      <trkpt lat="47.26134" lon="-0.07673">
        <ele>32.7</ele>
      </trkpt>
      <trkpt lat="47.2624" lon="-0.07855">
        <ele>30.3</ele>
      </trkpt>
      <trkpt lat="47.26281" lon="-0.07897">
        <ele>29.9</ele>
      </trkpt>
      <trkpt lat="47.26308" lon="-0.07934">
        <ele>30.2</ele>
      </trkpt>
      <trkpt lat="47.26346" lon="-0.0805">
        <ele>30.5</ele>
      </trkpt>
      <trkpt lat="47.26441" lon="-0.08215">
        <ele>30</ele>
      </trkpt>
      <trkpt lat="47.26689" lon="-0.08537">
        <ele>30.3</ele>
      </trkpt>
      <trkpt lat="47.26791" lon="-0.08662">
        <ele>29.3</ele>
      </trkpt>
      <trkpt lat="47.26824" lon="-0.08732">
        <ele>27.9</ele>
      </trkpt>
      <trkpt lat="47.26836" lon="-0.08824">
        <ele>31.1</ele>
      </trkpt>
      <trkpt lat="47.26816" lon="-0.08873">
        <ele>33.2</ele>
      </trkpt>
      <trkpt lat="47.26775" lon="-0.0896">
        <ele>35.4</ele>
      </trkpt>
      <trkpt lat="47.26671" lon="-0.09094">
        <ele>31.9</ele>
      </trkpt>
      <trkpt lat="47.26653" lon="-0.09147">
        <ele>34.1</ele>
      </trkpt>
      <trkpt lat="47.26576" lon="-0.09197">
        <ele>30.1</ele>
      </trkpt>
      <trkpt lat="47.26626" lon="-0.09265">
        <ele>29.4</ele>
      </trkpt>
      <trkpt lat="47.26577" lon="-0.09329">
        <ele>31.1</ele>
      </trkpt>
      <trkpt lat="47.26567" lon="-0.09403">
        <ele>30.8</ele>
      </trkpt>
      <trkpt lat="47.26586" lon="-0.09445">
        <ele>31</ele>
      </trkpt>
      <trkpt lat="47.2659" lon="-0.09463">
        <ele>30.3</ele>
        <time>2014-04-21T07:29:36Z</time>
      </trkpt>
      <trkpt lat="47.26598" lon="-0.09465">
        <ele>30.3</ele>
        <time>2014-04-21T07:29:39Z</time>
      </trkpt>
      <trkpt lat="47.266" lon="-0.09483">
        <ele>29.4</ele>
        <time>2014-04-21T07:29:42Z</time>
      </trkpt>
      <trkpt lat="47.266" lon="-0.09496">
        <ele>28.6</ele>
        <time>2014-04-21T07:29:50Z</time>
      </trkpt>
      <trkpt lat="47.26601" lon="-0.09523">
        <ele>27.2</ele>
        <time>2014-04-21T07:29:56Z</time>
      </trkpt>
      <trkpt lat="47.26602" lon="-0.09562">
        <ele>26</ele>
        <time>2014-04-21T07:30:02Z</time>
      </trkpt>
      <trkpt lat="47.26604" lon="-0.09637">
        <ele>26</ele>
        <time>2014-04-21T07:30:12Z</time>
      </trkpt>
      <trkpt lat="47.26605" lon="-0.097">
        <ele>26</ele>
        <time>2014-04-21T07:30:20Z</time>
      </trkpt>
      <trkpt lat="47.26606" lon="-0.0974">
        <ele>26.1</ele>
        <time>2014-04-21T07:30:25Z</time>
      </trkpt>
      <trkpt lat="47.26602" lon="-0.09772">
        <ele>26.3</ele>
        <time>2014-04-21T07:30:30Z</time>
      </trkpt>
      <trkpt lat="47.26593" lon="-0.09784">
        <ele>26.5</ele>
        <time>2014-04-21T07:30:34Z</time>
      </trkpt>
      <trkpt lat="47.26591" lon="-0.09785">
        <ele>26.5</ele>
        <time>2014-04-21T07:30:38Z</time>
      </trkpt>
      <trkpt lat="47.26591" lon="-0.09785">
        <ele>26.5</ele>
        <time>2014-04-21T07:31:51Z</time>
      </trkpt>
      <trkpt lat="47.26591" lon="-0.09785">
        <ele>26.5</ele>
        <time>2014-04-21T07:32:24Z</time>
      </trkpt>
      <trkpt lat="47.26578" lon="-0.09755">
        <ele>26.8</ele>
        <time>2014-04-21T07:32:31Z</time>
      </trkpt>
      <trkpt lat="47.26566" lon="-0.09715">
        <ele>26.2</ele>
        <time>2014-04-21T07:32:39Z</time>
      </trkpt>
      <trkpt lat="47.26552" lon="-0.09681">
        <ele>26.9</ele>
        <time>2014-04-21T07:32:46Z</time>
      </trkpt>
      <trkpt lat="47.26531" lon="-0.09641">
        <ele>26.8</ele>
        <time>2014-04-21T07:32:54Z</time>
      </trkpt>
      <trkpt lat="47.26507" lon="-0.0961">
        <ele>27</ele>
        <time>2014-04-21T07:33:01Z</time>
      </trkpt>
      <trkpt lat="47.26487" lon="-0.09593">
        <ele>26.8</ele>
        <time>2014-04-21T07:33:08Z</time>
      </trkpt>
      <trkpt lat="47.26472" lon="-0.09588">
        <ele>26.9</ele>
        <time>2014-04-21T07:33:12Z</time>
      </trkpt>
      <trkpt lat="47.26459" lon="-0.09583">
        <ele>27.5</ele>
        <time>2014-04-21T07:33:16Z</time>
      </trkpt>
      <trkpt lat="47.26438" lon="-0.09591">
        <ele>28.5</ele>
        <time>2014-04-21T07:33:24Z</time>
      </trkpt>
      <trkpt lat="47.26433" lon="-0.09592">
        <ele>29</ele>
        <time>2014-04-21T07:33:26Z</time>
      </trkpt>
      <trkpt lat="47.26425" lon="-0.096">
        <ele>28.4</ele>
        <time>2014-04-21T07:33:32Z</time>
      </trkpt>
    </trkseg>
  </trk>
</gpx>